createdAt,value
2019-05-16T07:13:52.663Z,57.20
2019-05-16T07:24:40.878Z,57.30
2019-05-16T07:26:49.873Z,57.30
2019-05-16T07:28:56.030Z,57.30
2019-05-16T07:31:14.876Z,57.20
2019-05-16T07:33:11.875Z,57.10
2019-05-16T07:35:20.413Z,57.40
2019-05-16T07:37:27.308Z,57.30
2019-05-16T07:39:34.665Z,57.40
2019-05-16T07:41:43.914Z,57.30
2019-05-16T07:43:50.499Z,57.30
2019-05-16T07:45:55.709Z,57.20
2019-05-16T07:48:02.572Z,57.20
2019-05-16T07:50:11.363Z,57.30
2019-05-16T07:52:20.881Z,57.30
2019-05-16T07:54:27.345Z,57.20
2019-05-16T07:56:32.442Z,57.20
2019-05-16T07:58:41.345Z,57.20
2019-05-16T08:00:57.781Z,57.30
2019-05-16T08:02:56.373Z,57.20
2019-05-16T08:05:03.049Z,57.30
2019-05-16T08:07:10.807Z,57.30
2019-05-16T08:09:17.515Z,57.20
2019-05-16T08:11:30.506Z,57.30
2019-05-16T08:13:36.062Z,57.40
2019-05-16T08:15:40.846Z,57.30
2019-05-16T08:17:47.079Z,57.30
2019-05-16T08:19:52.858Z,57.30
2019-05-16T08:22:03.317Z,57.20
2019-05-16T08:24:14.913Z,57.80
2019-05-16T08:26:22.009Z,57.30
2019-05-16T08:28:31.223Z,57.10
2019-05-16T08:30:37.363Z,57.10
2019-05-16T08:32:46.999Z,57.20
2019-05-16T08:34:54.432Z,57.20
2019-05-16T08:37:04.786Z,57.20
2019-05-16T08:39:11.297Z,57.20
2019-05-16T08:41:21.909Z,57.30
2019-05-16T08:43:31.586Z,57.20
2019-05-16T08:45:41.733Z,57.20
2019-05-16T08:47:52.476Z,57.20
2019-05-16T08:50:00.417Z,57.10
2019-05-16T08:52:04.488Z,57.10
2019-05-16T08:54:13.443Z,57.20
2019-05-16T08:56:22.130Z,57.00
2019-05-16T08:58:33.120Z,57.00
2019-05-16T09:00:41.671Z,57.10
2019-05-16T09:02:44.358Z,57.00
2019-05-16T09:04:55.330Z,57.10
2019-05-16T09:07:02.135Z,57.00
2019-05-16T09:09:27.760Z,56.90
2019-05-16T09:11:31.235Z,56.80
2019-05-16T09:13:28.019Z,56.90
2019-05-16T09:15:33.867Z,56.90
2019-05-16T09:17:41.466Z,56.80
2019-05-16T09:19:51.166Z,56.90
2019-05-16T09:21:58.072Z,56.80
2019-05-16T09:24:06.630Z,56.90
2019-05-16T09:26:15.838Z,56.80
2019-05-16T09:28:20.631Z,56.80
2019-05-16T09:30:27.719Z,56.80
2019-05-16T09:32:32.915Z,56.70
2019-05-16T09:34:42.113Z,56.60
2019-05-16T09:36:48.384Z,56.70
2019-05-16T09:38:57.630Z,56.80
2019-05-16T09:41:07.983Z,56.80
2019-05-16T09:43:17.779Z,56.80
2019-05-16T09:45:24.322Z,56.80
2019-05-16T09:47:32.796Z,56.80
2019-05-16T09:49:40.164Z,56.90
2019-05-16T09:51:46.729Z,57.00
2019-05-16T09:53:56.542Z,56.90
2019-05-16T09:56:07.024Z,57.00
2019-05-16T09:58:13.214Z,57.00
2019-05-16T10:00:21.805Z,57.00
2019-05-16T10:02:27.623Z,57.00
2019-05-16T10:04:36.763Z,57.00
2019-05-16T10:06:43.350Z,56.90
2019-05-16T10:08:49.609Z,56.90
2019-05-16T10:10:57.225Z,56.90
2019-05-16T10:13:03.762Z,56.90
2019-05-16T10:15:09.527Z,56.90
2019-05-16T10:17:17.630Z,56.80
2019-05-16T10:19:22.592Z,56.80
2019-05-16T10:21:27.892Z,56.80
2019-05-16T10:23:36.465Z,56.80
2019-05-16T10:25:42.204Z,56.80
2019-05-16T10:27:47.633Z,56.80
2019-05-16T10:29:53.659Z,56.80
2019-05-16T10:32:01.236Z,57.00
2019-05-16T10:34:08.109Z,56.90
2019-05-16T10:36:17.148Z,56.80
2019-05-16T10:38:22.689Z,56.80
2019-05-16T10:40:37.067Z,56.80
2019-05-16T10:42:47.177Z,56.90
2019-05-16T10:44:57.467Z,56.90
2019-05-16T10:47:02.724Z,57.00
2019-05-16T10:49:10.331Z,56.90
2019-05-16T10:51:16.970Z,56.80
2019-05-16T10:53:50.332Z,56.80
2019-05-16T10:55:30.885Z,56.70
2019-05-16T10:57:37.777Z,57.10
2019-05-16T11:00:02.005Z,57.20
2019-05-16T11:01:56.358Z,57.20
2019-05-16T11:04:02.184Z,57.10
2019-05-16T11:06:25.143Z,57.10
2019-05-16T11:08:24.667Z,57.10
2019-05-16T11:10:31.025Z,56.90
2019-05-16T11:12:47.597Z,56.90
2019-05-16T11:14:44.280Z,56.90
2019-05-16T11:16:50.390Z,56.90
2019-05-16T11:19:13.708Z,57.50
2019-05-16T11:21:07.452Z,56.90
2019-05-16T11:23:12.616Z,57.10
2019-05-16T11:25:28.885Z,57.10
2019-05-16T11:27:28.518Z,57.10
2019-05-16T11:29:36.629Z,57.60
2019-05-16T11:31:46.785Z,56.90
2019-05-16T11:33:51.220Z,57.00
2019-05-16T11:35:58.569Z,56.80
2019-05-16T11:38:06.865Z,56.90
2019-05-16T11:40:10.602Z,56.80
2019-05-16T11:42:17.647Z,57.20
2019-05-16T11:44:27.960Z,57.10
2019-05-16T11:46:31.760Z,57.10
2019-05-16T11:48:37.645Z,57.00
2019-05-16T11:50:48.056Z,56.90
2019-05-16T11:52:53.020Z,57.00
2019-05-16T11:55:01.201Z,56.90
2019-05-16T11:57:08.850Z,57.00
2019-05-16T11:59:14.708Z,56.80
2019-05-16T12:01:27.297Z,56.90
2019-05-16T12:03:37.198Z,56.90
2019-05-16T12:05:47.998Z,57.00
2019-05-16T12:07:52.242Z,57.00
2019-05-16T12:10:00.783Z,57.20
2019-05-16T12:12:08.890Z,57.20
2019-05-16T12:14:16.617Z,57.30
2019-05-16T12:16:24.476Z,57.40
2019-05-16T12:18:33.186Z,57.80
2019-05-16T12:20:39.339Z,58.00
2019-05-16T12:22:47.933Z,59.10
2019-05-16T12:24:57.238Z,58.80
2019-05-16T12:27:03.907Z,58.30
2019-05-16T12:29:10.218Z,57.90
2019-05-16T12:31:17.658Z,57.90
2019-05-16T12:33:24.167Z,58.00
2019-05-16T12:35:30.226Z,58.00
2019-05-16T12:37:37.158Z,58.10
2019-05-16T12:39:47.947Z,58.30
2019-05-16T12:41:58.527Z,58.70
2019-05-16T12:44:07.539Z,58.40
2019-05-16T12:46:11.821Z,58.70
2019-05-16T12:48:20.217Z,58.50
2019-05-16T12:50:28.198Z,58.40
2019-05-16T12:52:38.039Z,58.50
2019-05-16T12:54:41.962Z,58.50
2019-05-16T12:56:50.299Z,58.50
2019-05-16T12:58:58.277Z,59.00
2019-05-16T13:01:07.430Z,58.80
2019-05-16T13:03:15.596Z,58.80
2019-05-16T13:05:26.884Z,59.10
2019-05-16T13:07:32.861Z,59.00
2019-05-16T13:09:38.566Z,58.80
2019-05-16T13:11:47.218Z,58.80
2019-05-16T13:14:03.274Z,59.00
2019-05-16T13:16:07.314Z,59.10
2019-05-16T13:18:16.750Z,59.10
2019-05-16T13:20:22.556Z,58.90
2019-05-16T13:22:28.416Z,59.00
2019-05-16T13:24:38.328Z,59.00
2019-05-16T13:26:44.574Z,58.90
2019-05-16T13:28:50.674Z,58.80
2019-05-16T13:30:57.866Z,58.80
2019-05-16T13:33:04.280Z,58.80
2019-05-16T13:35:09.064Z,58.70
2019-05-16T13:37:17.935Z,58.80
2019-05-16T13:39:27.446Z,58.70
2019-05-16T13:41:34.434Z,58.80
2019-05-16T13:43:40.714Z,58.80
2019-05-16T13:45:47.971Z,58.80
2019-05-16T13:47:57.293Z,58.70
2019-05-16T13:50:11.526Z,58.70
2019-05-16T13:52:13.317Z,58.90
2019-05-16T13:54:21.763Z,58.80
2019-05-16T13:56:27.394Z,58.80
2019-05-16T13:58:37.192Z,58.90
2019-05-16T14:00:44.745Z,58.70
2019-05-16T14:02:52.030Z,58.60
2019-05-16T14:04:59.979Z,58.60
2019-05-16T14:07:07.627Z,58.60
2019-05-16T14:09:16.993Z,58.60
2019-05-16T14:11:23.003Z,58.50
2019-05-16T14:13:30.557Z,58.50
2019-05-16T14:15:37.681Z,58.50
2019-05-16T14:17:44.727Z,58.40
2019-05-16T14:19:52.280Z,58.40
2019-05-16T14:21:59.351Z,58.40
2019-05-16T14:24:04.875Z,58.50
2019-05-16T14:26:11.409Z,58.30
2019-05-16T14:28:17.850Z,58.40
2019-05-16T14:30:28.572Z,58.40
2019-05-16T14:32:40.831Z,58.40
2019-05-16T14:34:47.981Z,58.40
2019-05-16T14:36:52.435Z,58.40
2019-05-16T14:39:01.791Z,58.40
2019-05-16T14:41:11.657Z,58.40
2019-05-16T14:43:17.406Z,58.40
2019-05-16T14:45:26.402Z,58.30
2019-05-16T14:47:37.995Z,58.30
2019-05-16T14:49:42.769Z,58.30
2019-05-16T14:51:50.005Z,58.30
2019-05-16T14:53:57.371Z,58.30
2019-05-16T14:56:06.815Z,58.20
2019-05-16T14:58:12.465Z,58.30
2019-05-16T15:00:18.775Z,58.50
2019-05-16T15:02:27.511Z,58.60
2019-05-16T15:04:33.427Z,58.40
2019-05-16T15:06:43.409Z,58.40
2019-05-16T15:08:49.874Z,58.30
2019-05-16T15:10:57.439Z,58.30
2019-05-16T15:13:07.585Z,58.20
2019-05-16T15:15:21.178Z,58.20
2019-05-16T15:17:23.341Z,58.10
2019-05-16T15:19:29.056Z,58.10
2019-05-16T15:21:35.423Z,58.10
2019-05-16T15:23:41.437Z,57.90
2019-05-16T15:25:50.491Z,58.60
2019-05-16T15:27:57.582Z,57.90
2019-05-16T15:30:06.818Z,57.80
2019-05-16T15:32:12.252Z,57.90
2019-05-16T15:34:17.451Z,57.80
2019-05-16T15:36:24.011Z,57.70
2019-05-16T15:38:31.877Z,57.80
2019-05-16T15:40:39.653Z,57.90
2019-05-16T15:42:46.898Z,57.80
2019-05-16T15:44:53.871Z,57.80
2019-05-16T15:47:01.739Z,57.80
2019-05-16T15:49:10.303Z,57.70
2019-05-16T15:51:21.471Z,57.80
2019-05-16T15:53:29.145Z,57.70
2019-05-16T15:55:42.197Z,57.80
2019-05-16T15:57:48.981Z,57.90
2019-05-16T15:59:57.638Z,57.90
2019-05-16T16:02:07.261Z,57.90
2019-05-16T16:04:13.491Z,57.90
2019-05-16T16:06:20.264Z,57.80
2019-05-16T16:08:28.970Z,57.90
2019-05-16T16:10:41.559Z,57.80
2019-05-16T16:12:48.789Z,57.70
2019-05-16T16:14:53.824Z,58.40
2019-05-16T16:17:02.079Z,57.70
2019-05-16T16:19:07.390Z,57.80
2019-05-16T16:21:16.710Z,57.80
2019-05-16T16:23:27.056Z,57.70
2019-05-16T16:25:33.876Z,57.70
2019-05-16T16:27:42.578Z,57.70
2019-05-16T16:29:50.011Z,57.70
2019-05-16T16:31:57.115Z,57.80
2019-05-16T16:34:07.609Z,57.70
2019-05-16T16:36:19.155Z,57.70
2019-05-16T16:38:28.067Z,57.60
2019-05-16T16:40:34.237Z,57.70
2019-05-16T16:42:39.390Z,57.60
2019-05-16T16:44:49.130Z,57.60
2019-05-16T16:46:57.328Z,57.60
2019-05-16T16:49:03.625Z,57.60
2019-05-16T16:51:11.571Z,57.60
2019-05-16T16:53:19.786Z,57.60
2019-05-16T16:55:27.553Z,57.60
2019-05-16T16:57:38.376Z,57.50
2019-05-16T16:59:47.639Z,57.50
2019-05-16T17:01:57.166Z,57.60
2019-05-16T17:04:06.421Z,57.70
2019-05-16T17:06:12.358Z,57.80
2019-05-16T17:08:23.350Z,57.70
2019-05-16T17:10:38.071Z,57.80
2019-05-16T17:12:46.677Z,57.50
2019-05-16T17:14:52.119Z,57.30
2019-05-16T17:16:58.655Z,57.30
2019-05-16T17:19:07.654Z,57.30
2019-05-16T17:21:19.721Z,57.30
2019-05-16T17:23:26.829Z,57.30
2019-05-16T17:25:36.739Z,57.40
2019-05-16T17:27:42.525Z,57.50
2019-05-16T17:29:51.046Z,57.40
2019-05-16T17:32:05.854Z,57.30
2019-05-16T17:34:08.326Z,57.40
2019-05-16T17:36:14.529Z,57.40
2019-05-16T17:38:21.628Z,57.40
2019-05-16T17:40:28.509Z,57.40
2019-05-16T17:42:35.190Z,57.50
2019-05-16T17:44:42.637Z,57.40
2019-05-16T17:46:48.213Z,57.40
2019-05-16T17:48:56.939Z,57.40
2019-05-16T17:51:03.839Z,57.40
2019-05-16T17:53:13.341Z,57.40
2019-05-16T17:55:23.823Z,57.40
2019-05-16T17:57:31.508Z,57.30
2019-05-16T17:59:38.021Z,57.20
2019-05-16T18:01:46.223Z,57.40
2019-05-16T18:03:52.033Z,57.40
2019-05-16T18:06:06.295Z,57.60
2019-05-16T18:08:14.566Z,57.50
2019-05-16T18:10:20.320Z,57.40
2019-05-16T18:12:27.511Z,57.60
2019-05-16T18:14:32.374Z,57.50
2019-05-16T18:16:52.564Z,57.60
2019-05-16T18:18:50.124Z,57.70
2019-05-16T18:21:01.633Z,57.60
2019-05-16T18:23:07.703Z,57.70
2019-05-16T18:25:16.370Z,57.60
2019-05-16T18:27:27.210Z,57.70
2019-05-16T18:29:32.992Z,57.60
2019-05-16T18:31:39.759Z,57.70
2019-05-16T18:33:46.292Z,57.90
2019-05-16T18:35:53.716Z,58.20
2019-05-16T18:38:02.664Z,58.10
2019-05-16T18:40:12.257Z,58.30
2019-05-16T18:42:19.356Z,58.40
2019-05-16T18:44:27.340Z,58.40
2019-05-16T18:46:36.421Z,58.80
2019-05-16T18:48:44.165Z,59.40
2019-05-16T18:50:49.462Z,62.60
2019-05-16T18:52:57.764Z,63.10
2019-05-16T18:55:03.128Z,64.50
2019-05-16T18:57:13.574Z,64.20
2019-05-16T18:59:26.104Z,65.10
2019-05-16T19:01:33.969Z,65.40
2019-05-16T19:03:43.025Z,67.10
2019-05-16T19:05:51.548Z,66.80
2019-05-16T19:08:02.201Z,66.50
2019-05-16T19:10:11.255Z,66.80
2019-05-16T19:12:19.286Z,66.50
2019-05-16T19:14:27.171Z,67.10
2019-05-16T19:16:33.122Z,66.40
2019-05-16T19:18:40.671Z,67.10
2019-05-16T19:20:49.679Z,66.50
2019-05-16T19:22:59.432Z,67.20
2019-05-16T19:25:08.554Z,65.90
2019-05-16T19:27:17.302Z,65.40
2019-05-16T19:29:26.443Z,64.90
2019-05-16T19:31:38.855Z,64.30
2019-05-16T19:33:42.904Z,64.30
2019-05-16T19:35:49.135Z,64.20
2019-05-16T19:37:58.843Z,63.80
2019-05-16T19:40:06.440Z,63.70
2019-05-16T19:42:12.970Z,63.90
2019-05-16T19:44:20.425Z,63.80
2019-05-16T19:46:28.411Z,63.70
2019-05-16T19:48:37.079Z,63.90
2019-05-16T19:50:46.235Z,63.70
2019-05-16T19:52:53.853Z,63.70
2019-05-16T19:54:59.181Z,63.90
2019-05-16T19:57:08.739Z,63.90
2019-05-16T19:59:16.873Z,63.90
2019-05-16T20:01:23.235Z,63.90
2019-05-16T20:03:30.708Z,63.90
